createdAt,value
2023-03-11T00:00:13.621Z,98834.63
2023-03-11T00:02:41.138Z,98826.81
2023-03-11T00:05:08.966Z,98826.59
2023-03-11T00:07:37.769Z,98827.28
2023-03-11T00:10:05.155Z,98841.75
2023-03-11T00:12:32.407Z,98846.38
2023-03-11T00:14:59.731Z,98848.28
2023-03-11T00:17:27.105Z,98848.81
2023-03-11T00:19:54.552Z,98847.44
2023-03-11T00:22:21.869Z,98849.59
2023-03-11T00:24:49.024Z,98841.19
2023-03-11T00:27:16.246Z,98854.13
2023-03-11T00:29:43.555Z,98845.34
2023-03-11T00:32:10.825Z,98842.28
2023-03-11T00:34:38.179Z,98836.22
2023-03-11T00:37:05.551Z,98836.47
2023-03-11T00:39:32.810Z,98842.53
2023-03-11T00:42:00.154Z,98847.97
2023-03-11T00:44:27.382Z,98854.28
2023-03-11T00:46:54.646Z,98859.25
2023-03-11T00:49:21.991Z,98847.16
2023-03-11T00:51:49.320Z,98846.53
2023-03-11T00:54:16.621Z,98833.75
2023-03-11T00:56:43.965Z,98817.41
2023-03-11T00:59:12.061Z,98812.44
2023-03-11T01:01:39.355Z,98810.78
2023-03-11T01:04:06.772Z,98824.88
2023-03-11T01:06:44.881Z,98822.41
2023-03-11T01:09:12.776Z,98805.09
2023-03-11T01:11:39.969Z,98814.09
2023-03-11T01:14:09.362Z,98807.25
2023-03-11T01:16:37.871Z,98804.19
2023-03-11T01:19:05.089Z,98804.41
2023-03-11T01:21:32.600Z,98788.31
2023-03-11T01:24:00.328Z,98793.75
2023-03-11T01:26:27.819Z,98783.81
2023-03-11T01:28:56.329Z,98793.88
2023-03-11T01:31:23.832Z,98777.44
2023-03-11T01:33:51.265Z,98777.66
2023-03-11T01:36:18.512Z,98776.16
2023-03-11T01:38:45.657Z,98767.47
2023-03-11T01:41:13.008Z,98765.25
2023-03-11T01:43:47.264Z,98767.97
2023-03-11T01:46:26.058Z,98741.25
2023-03-11T01:48:54.999Z,98732.91
2023-03-11T01:51:37.283Z,98756.47
2023-03-11T01:54:07.866Z,98761.78
2023-03-11T01:56:36.123Z,98766.50
2023-03-11T01:59:03.544Z,98771.22
2023-03-11T02:01:30.867Z,98772.63
2023-03-11T02:03:59.896Z,98771.94
2023-03-11T02:06:27.265Z,98742.63
2023-03-11T02:08:55.504Z,98740.72
2023-03-11T02:11:25.084Z,98732.78
2023-03-11T02:13:54.705Z,98737.88
2023-03-11T02:16:22.102Z,98729.34
2023-03-11T02:18:51.121Z,98719.41
2023-03-11T02:21:26.995Z,98713.00
2023-03-11T02:23:59.882Z,98710.38
2023-03-11T02:26:36.519Z,98728.13
2023-03-11T02:29:05.612Z,98726.84
2023-03-11T02:31:33.751Z,98725.72
2023-03-11T02:34:03.016Z,98745.75
2023-03-11T02:36:32.028Z,98750.16
2023-03-11T02:38:59.271Z,98747.72
2023-03-11T02:41:27.669Z,98745.84
2023-03-11T02:43:55.071Z,98745.66
2023-03-11T02:46:24.045Z,98738.91
2023-03-11T02:48:52.420Z,98737.97
2023-03-11T02:51:19.792Z,98722.81
2023-03-11T02:53:51.869Z,98722.00
2023-03-11T02:56:19.301Z,98729.47
2023-03-11T02:58:46.550Z,98741.59
2023-03-11T03:01:14.106Z,98735.88
2023-03-11T03:03:44.394Z,98735.56
2023-03-11T03:06:12.298Z,98738.47
2023-03-11T03:08:39.720Z,98748.72
2023-03-11T03:11:07.203Z,98739.59
2023-03-11T03:13:34.768Z,98734.19
2023-03-11T03:16:02.510Z,98739.22
2023-03-11T03:18:29.828Z,98736.72
2023-03-11T03:20:57.250Z,98746.00
2023-03-11T03:23:24.537Z,98740.84
2023-03-11T03:25:51.870Z,98739.38
2023-03-11T03:28:19.539Z,98753.47
2023-03-11T03:30:47.069Z,98765.34
2023-03-11T03:33:14.945Z,98778.50
2023-03-11T03:35:43.897Z,98761.81
2023-03-11T03:38:19.623Z,98749.38
2023-03-11T03:40:48.658Z,98725.72
2023-03-11T03:43:18.937Z,98719.94
2023-03-11T03:45:55.086Z,98719.72
2023-03-11T03:48:22.572Z,98715.16
2023-03-11T03:50:49.966Z,98716.00
2023-03-11T03:53:17.655Z,98730.91
2023-03-11T03:55:45.304Z,98728.84
2023-03-11T03:58:13.238Z,98725.94
2023-03-11T04:00:40.627Z,98725.31
2023-03-11T04:03:07.953Z,98742.44
2023-03-11T04:05:43.545Z,98749.81
2023-03-11T04:08:12.236Z,98756.50
2023-03-11T04:10:39.460Z,98752.28
2023-03-11T04:13:06.821Z,98746.25
2023-03-11T04:15:34.529Z,98760.13
2023-03-11T04:18:01.796Z,98777.84
2023-03-11T04:20:29.202Z,98779.84
2023-03-11T04:22:56.650Z,98785.34
2023-03-11T04:25:24.971Z,98777.78
2023-03-11T04:27:52.491Z,98797.72
2023-03-11T04:30:20.976Z,98795.19
2023-03-11T04:32:50.429Z,98798.09
2023-03-11T04:35:18.685Z,98803.91
2023-03-11T04:37:46.054Z,98815.63
2023-03-11T04:40:13.762Z,98813.16
2023-03-11T04:42:41.087Z,98816.44
2023-03-11T04:45:08.783Z,98805.31
2023-03-11T04:47:36.777Z,98810.50
2023-03-11T04:50:06.013Z,98819.56
2023-03-11T04:52:33.331Z,98826.63
2023-03-11T04:55:00.487Z,98822.66
2023-03-11T04:57:28.247Z,98827.84
2023-03-11T04:59:57.110Z,98808.72
2023-03-11T05:02:24.311Z,98790.53
2023-03-11T05:04:55.510Z,98779.44
2023-03-11T05:07:24.361Z,98768.16
2023-03-11T05:09:52.211Z,98778.06
2023-03-11T05:12:19.565Z,98780.84
2023-03-11T05:14:50.750Z,98779.28
2023-03-11T05:17:19.377Z,98769.63
2023-03-11T05:19:48.925Z,98773.16
2023-03-11T05:22:22.216Z,98767.56
2023-03-11T05:24:49.759Z,98780.78
2023-03-11T05:27:18.145Z,98781.84
2023-03-11T05:29:48.336Z,98775.34
2023-03-11T05:32:19.304Z,98784.59
2023-03-11T05:34:48.670Z,98803.00
2023-03-11T05:37:17.397Z,98795.88
2023-03-11T05:39:46.387Z,98803.84
2023-03-11T05:42:14.846Z,98809.03
2023-03-11T05:44:42.264Z,98833.66
2023-03-11T05:47:09.843Z,98840.88
2023-03-11T05:49:37.521Z,98826.81
2023-03-11T05:52:05.799Z,98824.22
2023-03-11T05:54:34.094Z,98806.81
2023-03-11T05:57:01.347Z,98804.88
2023-03-11T05:59:29.264Z,98805.47
2023-03-11T06:02:02.285Z,98821.44
2023-03-11T06:04:29.972Z,98837.53
2023-03-11T06:06:58.310Z,98840.69
2023-03-11T06:09:29.121Z,98847.13
2023-03-11T06:11:56.902Z,98837.63
2023-03-11T06:14:31.722Z,98826.41
2023-03-11T06:17:00.712Z,98821.38
2023-03-11T06:19:28.632Z,98820.91
2023-03-11T06:21:56.026Z,98804.69
2023-03-11T06:24:23.343Z,98808.81
2023-03-11T06:26:51.371Z,98797.81
2023-03-11T06:29:19.139Z,98800.13
2023-03-11T06:31:48.202Z,98810.66
2023-03-11T06:34:15.712Z,98820.03
2023-03-11T06:36:43.117Z,98821.19
2023-03-11T06:39:12.378Z,98831.72
2023-03-11T06:41:39.663Z,98825.38
2023-03-11T06:44:09.383Z,98839.34
2023-03-11T06:46:37.729Z,98829.56
2023-03-11T06:49:05.517Z,98830.84
2023-03-11T06:51:33.702Z,98828.66
2023-03-11T06:54:01.155Z,98844.16
2023-03-11T06:56:29.217Z,98851.41
2023-03-11T06:59:01.644Z,98853.53
2023-03-11T07:01:32.154Z,98867.16
2023-03-11T07:04:01.761Z,98871.91
2023-03-11T07:06:29.899Z,98874.28
2023-03-11T07:09:05.938Z,98866.44
2023-03-11T07:11:34.935Z,98864.09
2023-03-11T07:14:08.990Z,98863.38
2023-03-11T07:16:39.825Z,98866.88
2023-03-11T07:19:13.031Z,98860.00
2023-03-11T07:21:40.338Z,98875.97
2023-03-11T07:24:07.663Z,98882.19
2023-03-11T07:26:35.435Z,98874.06
2023-03-11T07:29:02.658Z,98874.44
2023-03-11T07:31:33.702Z,98886.53
2023-03-11T07:34:02.949Z,98892.22
2023-03-11T07:36:30.391Z,98882.78
2023-03-11T07:39:04.415Z,98884.69
2023-03-11T07:41:32.903Z,98881.84
2023-03-11T07:44:00.850Z,98887.66
2023-03-11T07:46:29.464Z,98895.81
2023-03-11T07:48:56.872Z,98892.03
2023-03-11T07:51:25.784Z,98890.13
2023-03-11T07:53:54.400Z,98896.78
2023-03-11T07:56:23.675Z,98892.25
2023-03-11T07:58:51.373Z,98904.34
2023-03-11T08:01:20.115Z,98902.81
2023-03-11T08:03:48.171Z,98895.72
2023-03-11T08:06:16.613Z,98899.88
2023-03-11T08:08:44.035Z,98906.72
2023-03-11T08:11:13.263Z,98901.25
2023-03-11T08:13:41.285Z,98897.47
2023-03-11T08:16:09.275Z,98921.66
2023-03-11T08:18:36.777Z,98934.06
2023-03-11T08:21:04.786Z,98942.13
2023-03-11T08:23:32.049Z,98963.59
2023-03-11T08:25:59.577Z,98968.56
2023-03-11T08:28:26.792Z,98961.69
2023-03-11T08:30:54.243Z,98942.75
2023-03-11T08:33:21.664Z,98901.25
2023-03-11T08:35:49.037Z,98904.34
2023-03-11T08:38:16.941Z,98927.56
2023-03-11T08:40:44.127Z,98935.13
2023-03-11T08:43:13.408Z,98924.59
2023-03-11T08:45:41.330Z,98914.53
2023-03-11T08:48:10.233Z,98912.84
2023-03-11T08:50:52.858Z,98904.31
2023-03-11T08:53:22.196Z,98919.00
2023-03-11T08:55:50.546Z,98928.44
2023-03-11T08:58:18.380Z,98926.06
2023-03-11T09:00:46.343Z,98927.78
2023-03-11T09:03:13.686Z,98929.78
2023-03-11T09:05:40.975Z,98929.38
2023-03-11T09:08:08.305Z,98936.16
2023-03-11T09:10:35.423Z,98937.31
2023-03-11T09:13:02.781Z,98933.09
2023-03-11T09:15:29.972Z,98930.91
2023-03-11T09:17:57.241Z,98928.22
2023-03-11T09:20:24.549Z,98924.22
2023-03-11T09:22:51.872Z,98922.56
2023-03-11T09:25:19.084Z,98923.44
2023-03-11T09:27:57.335Z,98920.53
2023-03-11T09:30:27.561Z,98913.94
2023-03-11T09:32:54.821Z,98920.66
2023-03-11T09:35:22.128Z,98922.31
2023-03-11T09:37:49.796Z,98930.03
2023-03-11T09:40:18.743Z,98926.72
2023-03-11T09:42:54.354Z,98925.03
2023-03-11T09:45:24.656Z,98925.47
2023-03-11T09:48:10.703Z,98932.88
2023-03-11T09:51:00.392Z,98945.50
2023-03-11T09:53:30.640Z,98949.19
2023-03-11T09:56:05.245Z,98946.00
2023-03-11T09:59:01.944Z,98943.19
2023-03-11T10:01:33.244Z,98953.91
2023-03-11T10:04:20.653Z,98960.78
2023-03-11T10:06:48.752Z,98952.41
2023-03-11T10:09:29.231Z,98944.25
2023-03-11T10:11:56.488Z,98941.31
2023-03-11T10:14:35.813Z,98955.09
2023-03-11T10:17:14.475Z,98957.19
2023-03-11T10:19:50.025Z,98971.94
2023-03-11T10:22:35.554Z,98977.78
2023-03-11T10:25:02.816Z,98979.09
2023-03-11T10:27:33.061Z,98984.00
2023-03-11T10:30:06.470Z,98975.19
2023-03-11T10:32:59.755Z,98983.22
2023-03-11T10:35:41.446Z,98989.75
2023-03-11T10:38:15.473Z,98990.56
2023-03-11T10:40:44.672Z,98984.66
2023-03-11T10:43:14.625Z,99000.25
2023-03-11T10:45:44.769Z,99002.19
2023-03-11T10:48:13.180Z,99001.88
2023-03-11T10:50:47.327Z,99006.34
2023-03-11T10:53:16.204Z,99016.28
2023-03-11T10:55:51.297Z,99017.03
2023-03-11T10:58:20.497Z,99011.91
2023-03-11T11:00:59.704Z,99012.59
2023-03-11T11:03:27.263Z,99006.97
2023-03-11T11:06:02.304Z,99007.34
2023-03-11T11:08:29.618Z,99006.09
2023-03-11T11:10:58.542Z,99016.16
2023-03-11T11:13:27.211Z,99010.13
2023-03-11T11:16:14.670Z,99017.44
2023-03-11T11:18:49.956Z,99011.13
2023-03-11T11:21:27.643Z,99015.53
2023-03-11T11:24:04.096Z,99018.91
2023-03-11T11:26:31.409Z,99004.63
2023-03-11T11:29:08.419Z,99009.50
2023-03-11T11:31:36.597Z,99008.00
2023-03-11T11:34:04.248Z,99001.97
2023-03-11T11:36:34.700Z,98992.69
2023-03-11T11:39:05.041Z,98991.06
2023-03-11T11:41:35.486Z,98990.09
2023-03-11T11:44:06.838Z,98982.59
2023-03-11T11:46:37.141Z,98987.16
2023-03-11T11:49:16.509Z,98985.19
2023-03-11T11:51:43.984Z,98979.88
2023-03-11T11:54:11.096Z,98973.03
2023-03-11T11:56:40.696Z,98972.66
2023-03-11T11:59:17.456Z,98980.16
2023-03-11T12:02:06.618Z,98964.34
2023-03-11T12:05:09.396Z,98959.91
2023-03-11T12:08:01.387Z,98961.97
2023-03-11T12:10:58.161Z,98950.19
2023-03-11T12:13:47.500Z,98944.78
2023-03-11T12:16:27.780Z,98951.13
2023-03-11T12:19:02.578Z,98951.38
2023-03-11T12:21:32.940Z,98954.00
2023-03-11T12:24:18.604Z,98948.50
2023-03-11T12:26:47.913Z,98954.00
2023-03-11T12:29:17.896Z,98954.16
2023-03-11T12:31:45.444Z,98958.16
2023-03-11T12:34:14.625Z,98945.94
2023-03-11T12:36:43.968Z,98948.69
2023-03-11T12:39:23.615Z,98945.88
2023-03-11T12:42:20.259Z,98946.78
2023-03-11T12:44:48.384Z,98946.78
2023-03-11T12:47:15.472Z,98945.22
2023-03-11T12:49:44.094Z,98941.56
2023-03-11T12:52:11.675Z,98929.22
2023-03-11T12:54:41.918Z,98937.69
2023-03-11T12:57:21.466Z,98932.44
2023-03-11T13:00:12.232Z,98941.41
2023-03-11T13:02:39.527Z,98941.59
2023-03-11T13:05:09.682Z,98944.97
2023-03-11T13:07:39.981Z,98942.94
2023-03-11T13:10:07.203Z,98941.94
2023-03-11T13:12:46.964Z,98944.06
2023-03-11T13:15:20.333Z,98950.81
2023-03-11T13:17:59.931Z,98948.13
2023-03-11T13:20:39.360Z,98957.03
2023-03-11T13:23:12.667Z,98947.84
2023-03-11T13:25:40.046Z,98953.53
2023-03-11T13:28:08.103Z,98960.50
2023-03-11T13:30:40.739Z,98959.75
2023-03-11T13:33:17.386Z,98961.81
2023-03-11T13:35:44.720Z,98953.53
2023-03-11T13:38:11.994Z,98960.41
2023-03-11T13:40:46.425Z,98957.78
2023-03-11T13:43:21.205Z,98948.91
2023-03-11T13:45:52.679Z,98944.72
2023-03-11T13:48:28.994Z,98954.38
2023-03-11T13:51:05.424Z,98958.06
2023-03-11T13:53:36.036Z,98952.84
2023-03-11T13:56:04.513Z,98958.81
2023-03-11T13:58:31.821Z,98952.50
2023-03-11T14:01:00.416Z,98956.75
2023-03-11T14:03:36.528Z,98968.19
2023-03-11T14:06:06.777Z,98962.13
2023-03-11T14:08:38.324Z,98955.66
2023-03-11T14:11:09.955Z,98952.25
2023-03-11T14:13:41.733Z,98950.88
2023-03-11T14:16:17.446Z,98943.03
2023-03-11T14:18:48.749Z,98946.31
2023-03-11T14:21:20.781Z,98941.69
2023-03-11T14:23:49.652Z,98949.03
2023-03-11T14:26:26.418Z,98960.50
2023-03-11T14:28:55.482Z,98957.28
2023-03-11T14:31:36.525Z,98965.22
2023-03-11T14:34:07.643Z,98971.09
2023-03-11T14:36:48.607Z,98966.84
2023-03-11T14:39:22.141Z,98969.16
2023-03-11T14:41:50.508Z,98969.78
2023-03-11T14:44:17.889Z,98975.09
2023-03-11T14:46:46.693Z,98979.53
2023-03-11T14:49:17.882Z,98970.47
2023-03-11T14:51:45.610Z,98971.81
2023-03-11T14:54:19.793Z,98971.09
2023-03-11T14:56:51.234Z,98961.72
2023-03-11T14:59:18.918Z,98961.25
2023-03-11T15:01:47.088Z,98963.91
2023-03-11T15:04:32.927Z,98964.06
2023-03-11T15:07:01.297Z,98975.38
2023-03-11T15:09:29.376Z,98974.75
2023-03-11T15:12:01.042Z,98973.09
2023-03-11T15:14:32.756Z,98976.28
2023-03-11T15:17:11.700Z,98970.09
2023-03-11T15:19:40.636Z,98985.50
2023-03-11T15:22:25.336Z,98977.25
2023-03-11T15:24:53.954Z,98983.03
2023-03-11T15:27:23.966Z,98992.25
2023-03-11T15:29:52.766Z,98985.50
2023-03-11T15:32:29.540Z,98983.53
2023-03-11T15:35:23.467Z,98987.78
2023-03-11T15:37:52.305Z,98994.06
2023-03-11T15:40:42.467Z,98994.03
2023-03-11T15:43:15.115Z,98992.59
2023-03-11T15:45:43.207Z,98998.19
2023-03-11T15:48:12.264Z,99008.91
2023-03-11T15:50:55.078Z,99018.84
2023-03-11T15:53:24.218Z,99018.16
2023-03-11T15:56:06.608Z,99018.13
2023-03-11T15:58:35.875Z,99021.66
2023-03-11T16:01:04.096Z,99020.31
2023-03-11T16:03:31.786Z,99028.22
2023-03-11T16:05:59.187Z,99026.88
2023-03-11T16:08:26.641Z,99036.94
2023-03-11T16:10:54.171Z,99040.25
2023-03-11T16:13:21.825Z,99040.84
2023-03-11T16:15:49.332Z,99045.88
2023-03-11T16:18:16.959Z,99051.59
2023-03-11T16:20:48.124Z,99052.88
2023-03-11T16:23:51.597Z,99051.00
2023-03-11T16:26:22.615Z,99054.75
2023-03-11T16:28:50.143Z,99052.72
2023-03-11T16:31:17.772Z,99053.63
2023-03-11T16:33:45.507Z,99062.16
2023-03-11T16:36:13.471Z,99065.78
2023-03-11T16:38:49.745Z,99069.38
2023-03-11T16:41:17.496Z,99079.50
2023-03-11T16:43:44.987Z,99079.13
2023-03-11T16:46:12.284Z,99085.56
2023-03-11T16:48:39.505Z,99088.38
2023-03-11T16:51:06.839Z,99099.19
2023-03-11T16:53:34.206Z,99107.44
2023-03-11T16:56:01.624Z,99109.13
2023-03-11T16:58:28.956Z,99111.41
2023-03-11T17:00:56.262Z,99113.22
2023-03-11T17:03:24.844Z,99116.69
2023-03-11T17:06:00.496Z,99114.22
2023-03-11T17:08:27.776Z,99118.91
2023-03-11T17:10:54.986Z,99126.13
2023-03-11T17:13:22.277Z,99146.59
2023-03-11T17:16:02.517Z,99138.88
2023-03-11T17:18:30.212Z,99135.81
2023-03-11T17:20:57.930Z,99140.66
2023-03-11T17:23:25.561Z,99149.75
2023-03-11T17:25:53.105Z,99157.66
2023-03-11T17:28:20.554Z,99155.41
2023-03-11T17:30:48.411Z,99156.53
2023-03-11T17:33:16.150Z,99160.94
2023-03-11T17:35:44.286Z,99167.28
2023-03-11T17:38:11.976Z,99179.41
2023-03-11T17:40:39.853Z,99180.13
2023-03-11T17:43:07.782Z,99186.19
2023-03-11T17:45:38.092Z,99193.19
2023-03-11T17:48:05.952Z,99194.69
2023-03-11T17:50:38.712Z,99199.22
2023-03-11T17:53:06.830Z,99203.31
2023-03-11T17:55:34.675Z,99210.28
2023-03-11T17:58:02.112Z,99215.81
2023-03-11T18:00:29.465Z,99223.25
2023-03-11T18:02:56.716Z,99226.31
2023-03-11T18:05:23.996Z,99228.22
2023-03-11T18:07:51.337Z,99241.16
2023-03-11T18:10:18.690Z,99251.91
2023-03-11T18:12:46.624Z,99256.81
2023-03-11T18:15:18.904Z,99265.47
2023-03-11T18:17:46.859Z,99275.50
2023-03-11T18:20:14.821Z,99268.50
2023-03-11T18:22:46.173Z,99279.25
2023-03-11T18:25:14.043Z,99286.16
2023-03-11T18:27:41.392Z,99287.81
2023-03-11T18:30:11.217Z,99278.97
2023-03-11T18:32:40.305Z,99288.06
2023-03-11T18:35:07.973Z,99295.50
2023-03-11T18:37:35.338Z,99291.53
2023-03-11T18:40:03.282Z,99304.44
2023-03-11T18:42:30.547Z,99316.72
2023-03-11T18:44:57.856Z,99316.09
2023-03-11T18:47:25.042Z,99331.28
2023-03-11T18:49:52.864Z,99333.56
2023-03-11T18:52:20.590Z,99350.66
2023-03-11T18:54:47.920Z,99345.09
2023-03-11T18:57:15.159Z,99362.63
2023-03-11T18:59:42.450Z,99366.31
2023-03-11T19:02:10.480Z,99376.44
2023-03-11T19:04:38.093Z,99369.78
2023-03-11T19:07:05.431Z,99376.72
2023-03-11T19:09:32.952Z,99380.97
2023-03-11T19:12:00.101Z,99394.31
2023-03-11T19:14:27.361Z,99394.56
2023-03-11T19:16:54.832Z,99399.53
2023-03-11T19:19:22.137Z,99398.59
2023-03-11T19:21:49.432Z,99412.38
2023-03-11T19:24:16.652Z,99415.97
2023-03-11T19:26:46.002Z,99416.16
2023-03-11T19:29:14.362Z,99415.72
2023-03-11T19:31:43.618Z,99424.53
2023-03-11T19:34:11.548Z,99422.47
2023-03-11T19:36:39.561Z,99424.75
2023-03-11T19:39:07.072Z,99424.25
2023-03-11T19:41:34.784Z,99437.34
2023-03-11T19:44:04.266Z,99429.97
2023-03-11T19:46:34.760Z,99443.50
2023-03-11T19:49:02.744Z,99450.66
2023-03-11T19:51:38.755Z,99453.03
2023-03-11T19:54:10.380Z,99464.00
2023-03-11T19:56:39.412Z,99459.34
2023-03-11T19:59:07.534Z,99474.59
2023-03-11T20:01:35.155Z,99478.25
2023-03-11T20:04:02.757Z,99491.53
2023-03-11T20:06:30.709Z,99478.59
2023-03-11T20:08:58.412Z,99501.25
2023-03-11T20:11:26.089Z,99505.03
2023-03-11T20:13:54.283Z,99505.75
2023-03-11T20:16:22.618Z,99511.91
2023-03-11T20:18:50.988Z,99534.47
2023-03-11T20:21:19.405Z,99545.88
2023-03-11T20:23:49.364Z,99549.78
2023-03-11T20:26:19.400Z,99560.34
2023-03-11T20:28:47.296Z,99571.72
2023-03-11T20:31:17.207Z,99558.41
2023-03-11T20:33:44.860Z,99558.03
2023-03-11T20:36:14.138Z,99563.03
2023-03-11T20:38:42.143Z,99573.06
2023-03-11T20:41:10.857Z,99585.88
2023-03-11T20:43:39.124Z,99598.19
2023-03-11T20:46:07.831Z,99611.59
2023-03-11T20:48:35.842Z,99610.97
2023-03-11T20:51:04.269Z,99619.97
2023-03-11T20:53:31.934Z,99618.50
2023-03-11T20:56:00.129Z,99625.81
2023-03-11T20:58:27.680Z,99644.13
2023-03-11T21:00:55.077Z,99645.50
2023-03-11T21:03:22.729Z,99630.47
2023-03-11T21:05:50.498Z,99656.56
2023-03-11T21:08:18.059Z,99648.50
2023-03-11T21:10:45.301Z,99656.56
2023-03-11T21:13:12.793Z,99654.50
2023-03-11T21:15:40.142Z,99656.16
2023-03-11T21:18:07.496Z,99666.41
2023-03-11T21:20:34.804Z,99661.56
2023-03-11T21:23:02.064Z,99652.41
2023-03-11T21:25:31.404Z,99659.47
2023-03-11T21:27:58.746Z,99662.09
2023-03-11T21:30:25.988Z,99666.59
2023-03-11T21:32:53.473Z,99672.75
2023-03-11T21:35:20.846Z,99670.13
2023-03-11T21:37:48.176Z,99675.34
2023-03-11T21:40:15.674Z,99674.91
2023-03-11T21:42:42.912Z,99684.75
2023-03-11T21:45:10.458Z,99691.63
2023-03-11T21:47:38.016Z,99686.59
2023-03-11T21:50:06.145Z,99685.47
2023-03-11T21:52:33.595Z,99689.31
2023-03-11T21:55:00.912Z,99683.28
2023-03-11T21:57:28.183Z,99686.81
2023-03-11T21:59:55.525Z,99689.31
2023-03-11T22:02:23.028Z,99689.31
2023-03-11T22:04:50.854Z,99691.72
2023-03-11T22:07:18.227Z,99689.53
2023-03-11T22:09:45.787Z,99692.03
2023-03-11T22:12:13.519Z,99687.03
2023-03-11T22:14:41.070Z,99694.31
2023-03-11T22:17:08.409Z,99690.78
2023-03-11T22:19:35.842Z,99697.97
2023-03-11T22:22:03.263Z,99696.94
2023-03-11T22:24:30.464Z,99700.78
2023-03-11T22:26:57.755Z,99703.06
2023-03-11T22:29:25.198Z,99698.06
2023-03-11T22:31:52.503Z,99704.75
2023-03-11T22:34:19.788Z,99705.69
2023-03-11T22:36:47.052Z,99710.59
2023-03-11T22:39:14.262Z,99729.38
2023-03-11T22:41:41.594Z,99720.94
2023-03-11T22:44:08.855Z,99726.03
2023-03-11T22:46:36.181Z,99739.41
2023-03-11T22:49:03.380Z,99741.06
2023-03-11T22:51:30.695Z,99735.03
2023-03-11T22:53:57.987Z,99742.94
2023-03-11T22:56:26.191Z,99743.16
2023-03-11T22:58:53.420Z,99740.94
2023-03-11T23:01:20.657Z,99747.22
2023-03-11T23:03:47.856Z,99745.94
2023-03-11T23:06:16.781Z,99759.41
2023-03-11T23:08:44.504Z,99761.81
2023-03-11T23:11:13.112Z,99761.28
2023-03-11T23:13:40.930Z,99753.97
2023-03-11T23:16:11.559Z,99752.31
2023-03-11T23:18:38.763Z,99757.72
2023-03-11T23:21:13.338Z,99771.09
2023-03-11T23:23:40.632Z,99773.19
2023-03-11T23:26:08.744Z,99773.81
2023-03-11T23:28:36.017Z,99771.72
2023-03-11T23:31:04.457Z,99775.03
2023-03-11T23:33:31.696Z,99777.31
2023-03-11T23:36:06.647Z,99793.16
2023-03-11T23:38:34.308Z,99791.09
2023-03-11T23:41:01.648Z,99796.69
2023-03-11T23:43:28.855Z,99806.69
2023-03-11T23:45:56.198Z,99800.25
2023-03-11T23:48:23.403Z,99806.84
2023-03-11T23:50:51.205Z,99813.09
2023-03-11T23:53:21.376Z,99812.53
2023-03-11T23:55:48.813Z,99819.63
2023-03-11T23:58:16.112Z,99823.75
